createdAt,value
2022-11-16T00:00:56.443Z,982.55
2022-11-16T00:01:56.443Z,982.53
2022-11-16T00:02:56.323Z,982.54
2022-11-16T00:03:56.212Z,982.55
2022-11-16T00:04:56.156Z,982.59
2022-11-16T00:05:56.113Z,982.56
2022-11-16T00:06:56.099Z,982.55
2022-11-16T00:07:56.002Z,982.55
2022-11-16T00:08:55.930Z,982.55
2022-11-16T00:09:55.866Z,982.53
2022-11-16T00:10:55.773Z,982.52
2022-11-16T00:11:55.747Z,982.58
2022-11-16T00:12:55.681Z,982.56
2022-11-16T00:13:55.614Z,982.54
2022-11-16T00:14:55.518Z,982.52
2022-11-16T00:15:55.481Z,982.51
2022-11-16T00:16:55.408Z,982.52
2022-11-16T00:17:55.329Z,982.48
2022-11-16T00:18:55.259Z,982.48
2022-11-16T00:19:55.230Z,982.45
2022-11-16T00:20:55.169Z,982.47
2022-11-16T00:21:55.102Z,982.50
2022-11-16T00:22:55.299Z,982.49
2022-11-16T00:23:54.951Z,982.51
2022-11-16T00:24:54.856Z,982.47
2022-11-16T00:25:54.849Z,982.47
2022-11-16T00:26:54.756Z,982.44
2022-11-16T00:27:54.717Z,982.45
2022-11-16T00:28:54.645Z,982.47
2022-11-16T00:29:54.589Z,982.47
2022-11-16T00:30:54.505Z,982.44
2022-11-16T00:31:54.475Z,982.46
2022-11-16T00:32:54.397Z,982.47
2022-11-16T00:33:54.305Z,982.37
2022-11-16T00:34:54.258Z,982.36
2022-11-16T00:35:54.211Z,982.38
2022-11-16T00:36:54.138Z,982.37
2022-11-16T00:37:54.089Z,982.36
2022-11-16T00:38:54.017Z,982.36
2022-11-16T00:39:53.948Z,982.36
2022-11-16T00:43:12.285Z,982.33
2022-11-16T00:44:13.257Z,982.36
2022-11-16T00:45:13.209Z,982.35
2022-11-16T00:46:13.140Z,982.34
2022-11-16T00:47:13.067Z,982.35
2022-11-16T00:48:13.032Z,982.32
2022-11-16T00:49:12.917Z,982.29
2022-11-16T00:50:12.845Z,982.27
2022-11-16T00:51:12.819Z,982.32
2022-11-16T00:52:12.762Z,982.25
2022-11-16T00:53:12.701Z,982.23
2022-11-16T00:54:12.627Z,982.30
2022-11-16T00:55:12.531Z,982.31
2022-11-16T00:56:12.455Z,982.28
2022-11-16T00:57:12.426Z,982.30
2022-11-16T00:58:12.335Z,982.30
2022-11-16T00:59:12.274Z,982.28
2022-11-16T01:00:33.227Z,982.26
2022-11-16T01:01:12.189Z,982.26
2022-11-16T01:02:12.086Z,982.25
2022-11-16T01:03:12.048Z,982.28
2022-11-16T01:04:11.988Z,982.22
2022-11-16T01:05:11.884Z,982.21
2022-11-16T01:06:11.845Z,982.22
2022-11-16T01:07:11.814Z,982.20
2022-11-16T01:08:11.730Z,982.18
2022-11-16T01:09:11.627Z,982.15
2022-11-16T01:10:11.600Z,982.14
2022-11-16T01:11:11.534Z,982.07
2022-11-16T01:12:11.496Z,982.08
2022-11-16T01:13:11.372Z,982.08
2022-11-16T01:14:11.345Z,982.04
2022-11-16T01:15:11.264Z,982.04
2022-11-16T01:16:11.182Z,982.05
2022-11-16T01:17:11.117Z,982.02
2022-11-16T01:18:32.515Z,982.03
2022-11-16T01:19:11.743Z,982.06
2022-11-16T01:20:10.963Z,982.04
2022-11-16T01:21:10.862Z,982.04
2022-11-16T01:22:10.810Z,981.96
2022-11-16T01:23:10.730Z,982.00
2022-11-16T01:24:10.714Z,982.01
2022-11-16T01:25:10.571Z,982.00
2022-11-16T01:26:10.572Z,981.96
2022-11-16T01:27:10.469Z,981.96
2022-11-16T01:28:10.443Z,981.96
2022-11-16T01:29:10.351Z,981.95
2022-11-16T01:30:10.300Z,981.91
2022-11-16T01:31:10.230Z,981.93
2022-11-16T01:32:10.162Z,981.89
2022-11-16T01:33:10.089Z,981.90
2022-11-16T01:34:10.033Z,981.92
2022-11-16T01:35:09.945Z,981.91
2022-11-16T01:36:34.902Z,981.88
2022-11-16T01:37:09.846Z,981.86
2022-11-16T01:38:09.771Z,981.87
2022-11-16T01:39:09.709Z,981.87
2022-11-16T01:40:09.693Z,981.84
2022-11-16T01:41:09.578Z,981.89
2022-11-16T01:42:09.575Z,981.89
2022-11-16T01:43:09.493Z,981.86
2022-11-16T01:44:09.423Z,981.86
2022-11-16T01:45:09.377Z,981.86
2022-11-16T01:46:09.276Z,981.85
2022-11-16T01:47:09.211Z,981.88
2022-11-16T01:48:09.188Z,981.82
2022-11-16T01:49:09.104Z,981.90
2022-11-16T01:50:09.008Z,981.87
2022-11-16T01:51:08.980Z,981.87
2022-11-16T01:52:08.910Z,981.85
2022-11-16T01:53:08.849Z,981.86
2022-11-16T01:54:29.770Z,981.80
2022-11-16T01:55:08.721Z,981.82
2022-11-16T01:56:08.664Z,981.83
2022-11-16T01:57:08.601Z,981.85
2022-11-16T01:58:08.534Z,981.85
2022-11-16T01:59:08.437Z,981.81
2022-11-16T02:00:08.411Z,981.83
2022-11-16T02:01:08.418Z,981.81
2022-11-16T02:02:08.251Z,981.78
2022-11-16T02:03:08.125Z,981.78
2022-11-16T02:04:08.150Z,981.75
2022-11-16T02:05:08.090Z,981.76
2022-11-16T02:06:08.006Z,981.76
2022-11-16T02:07:07.924Z,981.77
2022-11-16T02:08:07.840Z,981.76
2022-11-16T02:09:07.748Z,981.75
2022-11-16T02:10:07.727Z,981.74
2022-11-16T02:11:07.629Z,981.70
2022-11-16T02:14:26.036Z,981.73
2022-11-16T02:15:26.908Z,981.74
2022-11-16T02:16:26.861Z,981.69
2022-11-16T02:17:26.813Z,981.68
2022-11-16T02:18:26.744Z,981.66
2022-11-16T02:19:26.680Z,981.68
2022-11-16T02:20:26.603Z,981.63
2022-11-16T02:21:26.541Z,981.67
2022-11-16T02:22:26.500Z,981.65
2022-11-16T02:23:26.412Z,981.67
2022-11-16T02:24:26.382Z,981.64
2022-11-16T02:25:26.333Z,981.63
2022-11-16T02:26:26.232Z,981.64
2022-11-16T02:27:26.160Z,981.65
2022-11-16T02:28:26.104Z,981.63
2022-11-16T02:29:25.992Z,981.65
2022-11-16T02:30:26.014Z,981.69
2022-11-16T02:31:25.950Z,981.69
2022-11-16T02:32:25.838Z,981.70
2022-11-16T02:33:25.812Z,981.69
2022-11-16T02:34:25.750Z,981.67
2022-11-16T02:35:25.667Z,981.69
2022-11-16T02:36:25.610Z,981.67
2022-11-16T02:37:25.502Z,981.65
2022-11-16T02:38:25.411Z,981.64
2022-11-16T02:39:25.337Z,981.64
2022-11-16T02:40:25.287Z,981.62
2022-11-16T02:41:25.239Z,981.62
2022-11-16T02:42:25.159Z,981.67
2022-11-16T02:43:25.095Z,981.68
2022-11-16T02:44:25.051Z,981.66
2022-11-16T02:45:25.038Z,981.66
2022-11-16T02:46:24.966Z,981.67
2022-11-16T02:47:24.887Z,981.65
2022-11-16T02:48:24.824Z,981.62
2022-11-16T02:51:43.217Z,981.61
2022-11-16T02:52:44.148Z,981.57
2022-11-16T02:53:44.062Z,981.65
2022-11-16T02:54:44.002Z,981.60
2022-11-16T02:55:43.920Z,981.61
2022-11-16T02:56:44.336Z,981.64
2022-11-16T02:57:43.832Z,981.60
2022-11-16T02:58:43.741Z,981.62
2022-11-16T02:59:43.696Z,981.61
2022-11-16T03:00:43.776Z,981.60
2022-11-16T03:01:43.572Z,981.54
2022-11-16T03:02:43.492Z,981.60
2022-11-16T03:03:43.420Z,981.60
2022-11-16T03:04:44.142Z,981.57
2022-11-16T03:05:43.327Z,981.50
2022-11-16T03:06:43.228Z,981.50
2022-11-16T03:07:43.159Z,981.49
2022-11-16T03:11:01.536Z,981.49
2022-11-16T03:12:02.475Z,981.46
2022-11-16T03:13:02.436Z,981.41
2022-11-16T03:14:02.348Z,981.41
2022-11-16T03:15:02.295Z,981.40
2022-11-16T03:16:02.258Z,981.44
2022-11-16T03:17:02.177Z,981.43
2022-11-16T03:18:02.095Z,981.42
2022-11-16T03:19:02.025Z,981.42
2022-11-16T03:20:01.954Z,981.47
2022-11-16T03:21:01.939Z,981.46
2022-11-16T03:22:01.866Z,981.47
2022-11-16T03:23:01.762Z,981.43
2022-11-16T03:24:01.705Z,981.43
2022-11-16T03:25:01.668Z,981.47
2022-11-16T03:26:01.604Z,981.42
2022-11-16T03:27:01.556Z,981.46
2022-11-16T03:28:01.766Z,981.48
2022-11-16T03:29:01.414Z,981.45
2022-11-16T03:30:01.326Z,981.42
2022-11-16T03:31:01.293Z,981.47
2022-11-16T03:32:01.193Z,981.46
2022-11-16T03:33:01.170Z,981.44
2022-11-16T03:34:01.107Z,981.49
2022-11-16T03:35:01.036Z,981.46
2022-11-16T03:36:00.975Z,981.43
2022-11-16T03:37:00.871Z,981.41
2022-11-16T03:38:00.888Z,981.40
2022-11-16T03:39:00.740Z,981.39
2022-11-16T03:40:00.691Z,981.43
2022-11-16T03:41:00.625Z,981.46
2022-11-16T03:42:00.562Z,981.41
2022-11-16T03:43:00.525Z,981.41
2022-11-16T03:44:00.431Z,981.41
2022-11-16T03:45:00.356Z,981.45
2022-11-16T03:46:00.352Z,981.40
2022-11-16T03:47:00.246Z,981.43
2022-11-16T03:48:00.160Z,981.38
2022-11-16T03:49:00.111Z,981.34
2022-11-16T03:50:00.071Z,981.33
2022-11-16T03:50:59.981Z,981.40
2022-11-16T03:51:59.931Z,981.48
2022-11-16T03:52:59.884Z,981.45
2022-11-16T03:53:59.823Z,981.45
2022-11-16T03:54:59.751Z,981.32
2022-11-16T03:55:59.691Z,981.37
2022-11-16T03:56:59.608Z,981.38
2022-11-16T03:58:00.049Z,981.40
2022-11-16T03:58:59.469Z,981.38
2022-11-16T03:59:59.444Z,981.37
2022-11-16T04:00:59.486Z,981.39
2022-11-16T04:01:59.279Z,981.36
2022-11-16T04:02:59.239Z,981.33
2022-11-16T04:03:59.251Z,981.33
2022-11-16T04:04:59.076Z,981.31
2022-11-16T04:05:59.017Z,981.31
2022-11-16T04:06:58.926Z,981.31
2022-11-16T04:07:58.827Z,981.29
2022-11-16T04:08:58.861Z,981.32
2022-11-16T04:09:58.776Z,981.32
2022-11-16T04:10:59.298Z,981.30
2022-11-16T04:11:58.657Z,981.32
2022-11-16T04:12:58.560Z,981.29
2022-11-16T04:13:58.446Z,981.28
2022-11-16T04:14:58.419Z,981.34
2022-11-16T04:15:58.358Z,981.33
2022-11-16T04:16:58.269Z,981.32
2022-11-16T04:17:58.228Z,981.32
2022-11-16T04:18:58.168Z,981.31
2022-11-16T04:19:58.533Z,981.32
2022-11-16T04:20:58.065Z,981.29
2022-11-16T04:22:18.975Z,981.31
2022-11-16T04:22:57.934Z,981.25
2022-11-16T04:23:57.901Z,981.21
2022-11-16T04:24:57.811Z,981.18
2022-11-16T04:25:57.778Z,981.22
2022-11-16T04:26:57.666Z,981.24
2022-11-16T04:27:57.667Z,981.22
2022-11-16T04:28:57.544Z,981.21
2022-11-16T04:29:57.516Z,981.24
2022-11-16T04:30:57.375Z,981.21
2022-11-16T04:31:57.384Z,981.24
2022-11-16T04:32:57.283Z,981.22
2022-11-16T04:33:57.247Z,981.22
2022-11-16T04:34:57.196Z,981.23
2022-11-16T04:35:57.136Z,981.19
2022-11-16T04:36:57.031Z,981.19
2022-11-16T04:37:56.949Z,981.24
2022-11-16T04:38:56.946Z,981.24
2022-11-16T04:41:35.862Z,981.31
2022-11-16T04:42:36.750Z,981.30
2022-11-16T04:43:36.689Z,981.24
2022-11-16T04:44:36.654Z,981.27
2022-11-16T04:45:36.602Z,981.27
2022-11-16T04:46:36.524Z,981.24
2022-11-16T04:47:36.463Z,981.18
2022-11-16T04:48:36.781Z,981.21
2022-11-16T04:49:36.336Z,981.19
2022-11-16T04:50:36.246Z,981.16
2022-11-16T04:51:36.189Z,981.20
2022-11-16T04:52:36.099Z,981.19
2022-11-16T04:53:36.037Z,981.18
2022-11-16T04:54:36.008Z,981.17
2022-11-16T04:55:35.901Z,981.16
2022-11-16T04:56:35.848Z,981.17
2022-11-16T04:57:35.789Z,981.18
2022-11-16T04:58:36.059Z,981.15
2022-11-16T04:59:35.655Z,981.18
2022-11-16T05:00:35.620Z,981.18
2022-11-16T05:01:35.583Z,981.13
2022-11-16T05:02:35.458Z,981.10
2022-11-16T05:03:35.748Z,981.16
2022-11-16T05:04:35.337Z,981.08
2022-11-16T05:05:35.278Z,981.16
2022-11-16T05:06:35.195Z,981.11
2022-11-16T05:07:35.209Z,981.09
2022-11-16T05:08:35.377Z,981.12
2022-11-16T05:09:35.027Z,981.11
2022-11-16T05:10:34.949Z,981.15
2022-11-16T05:11:34.886Z,981.10
2022-11-16T05:12:34.827Z,981.12
2022-11-16T05:13:34.755Z,981.11
2022-11-16T05:14:34.717Z,981.13
2022-11-16T05:15:34.679Z,981.11
2022-11-16T05:16:34.567Z,981.10
2022-11-16T05:17:34.478Z,981.10
2022-11-16T05:18:34.783Z,981.11
2022-11-16T05:19:34.397Z,981.09
2022-11-16T05:20:34.280Z,981.07
2022-11-16T05:21:34.302Z,981.10
2022-11-16T05:22:34.207Z,981.08
2022-11-16T05:23:34.768Z,981.10
2022-11-16T05:24:34.075Z,981.08
2022-11-16T05:25:36.655Z,981.08
2022-11-16T05:26:33.952Z,981.09
2022-11-16T05:27:33.913Z,981.04
2022-11-16T05:28:34.180Z,981.05
2022-11-16T05:29:33.756Z,981.06
2022-11-16T05:30:33.657Z,981.05
2022-11-16T05:31:39.108Z,981.06
2022-11-16T05:32:33.537Z,981.09
2022-11-16T05:33:54.442Z,981.05
2022-11-16T05:34:33.405Z,981.06
2022-11-16T05:35:33.381Z,981.07
2022-11-16T05:36:33.303Z,981.04
2022-11-16T05:37:33.234Z,981.01
2022-11-16T05:38:33.592Z,981.06
2022-11-16T05:39:33.104Z,981.09
2022-11-16T05:40:33.059Z,981.08
2022-11-16T05:41:32.985Z,981.05
2022-11-16T05:42:32.888Z,981.06
2022-11-16T05:43:32.863Z,981.05
2022-11-16T05:44:32.794Z,981.11
2022-11-16T05:45:32.720Z,981.08
2022-11-16T05:46:32.656Z,981.13
2022-11-16T05:47:32.606Z,981.11
2022-11-16T05:48:32.747Z,981.09
2022-11-16T05:49:32.440Z,981.10
2022-11-16T05:50:32.384Z,981.10
2022-11-16T05:51:32.364Z,981.12
2022-11-16T05:52:32.250Z,981.15
2022-11-16T05:53:32.223Z,981.15
2022-11-16T05:54:32.112Z,981.16
2022-11-16T05:55:32.096Z,981.14
2022-11-16T05:56:32.087Z,981.18
2022-11-16T05:57:31.992Z,981.15
2022-11-16T05:58:32.192Z,981.17
2022-11-16T05:59:31.753Z,981.16
2022-11-16T06:00:31.714Z,981.15
2022-11-16T06:01:31.714Z,981.17
2022-11-16T06:02:31.642Z,981.16
2022-11-16T06:03:31.594Z,981.14
2022-11-16T06:04:31.509Z,981.17
2022-11-16T06:05:33.268Z,981.15
2022-11-16T06:06:31.360Z,981.16
2022-11-16T06:07:31.383Z,981.16
2022-11-16T06:08:31.449Z,981.16
2022-11-16T06:09:31.201Z,981.12
2022-11-16T06:10:31.201Z,981.15
2022-11-16T06:11:35.538Z,981.13
2022-11-16T06:12:30.981Z,981.18
2022-11-16T06:13:30.931Z,981.21
2022-11-16T06:14:30.882Z,981.18
2022-11-16T06:15:30.843Z,981.14
2022-11-16T06:16:30.749Z,981.17
2022-11-16T06:17:30.646Z,981.18
2022-11-16T06:18:30.787Z,981.20
2022-11-16T06:19:32.582Z,981.19
2022-11-16T06:20:30.443Z,981.20
2022-11-16T06:21:31.248Z,981.23
2022-11-16T06:22:30.335Z,981.17
2022-11-16T06:23:30.251Z,981.20
2022-11-16T06:24:30.159Z,981.22
2022-11-16T06:25:30.173Z,981.24
2022-11-16T06:26:30.072Z,981.23
2022-11-16T06:27:29.965Z,981.23
2022-11-16T06:28:29.897Z,981.26
2022-11-16T06:29:29.813Z,981.23
2022-11-16T06:30:29.789Z,981.26
2022-11-16T06:31:29.704Z,981.23
2022-11-16T06:32:29.635Z,981.22
2022-11-16T06:33:33.348Z,981.22
2022-11-16T06:34:29.519Z,981.23
2022-11-16T06:35:29.444Z,981.23
2022-11-16T06:36:29.401Z,981.24
2022-11-16T06:37:29.302Z,981.29
2022-11-16T06:38:29.273Z,981.27
2022-11-16T06:39:29.191Z,981.27
2022-11-16T06:40:29.118Z,981.25
2022-11-16T06:41:29.090Z,981.27
2022-11-16T06:42:30.755Z,981.32
2022-11-16T06:43:29.119Z,981.32
2022-11-16T06:44:28.875Z,981.33
2022-11-16T06:45:32.710Z,981.32
2022-11-16T06:46:28.997Z,981.32
2022-11-16T06:47:28.672Z,981.34
2022-11-16T06:48:28.644Z,981.29
2022-11-16T06:49:28.574Z,981.33
2022-11-16T06:50:29.743Z,981.34
2022-11-16T06:51:28.463Z,981.36
2022-11-16T06:52:28.343Z,981.39
2022-11-16T06:53:29.537Z,981.40
2022-11-16T06:54:28.271Z,981.40
2022-11-16T06:55:28.162Z,981.42
2022-11-16T06:56:29.489Z,981.44
2022-11-16T06:57:28.086Z,981.45
2022-11-16T06:58:28.063Z,981.45
2022-11-16T06:59:27.962Z,981.45
2022-11-16T07:00:27.862Z,981.44
2022-11-16T07:01:27.904Z,981.51
2022-11-16T07:02:27.768Z,981.54
2022-11-16T07:03:28.005Z,981.54
2022-11-16T07:04:27.618Z,981.53
2022-11-16T07:05:27.540Z,981.55
2022-11-16T07:06:27.449Z,981.55
2022-11-16T07:07:27.399Z,981.57
2022-11-16T07:08:27.351Z,981.52
2022-11-16T07:09:27.235Z,981.56
2022-11-16T07:10:28.354Z,981.52
2022-11-16T07:11:28.817Z,981.53
2022-11-16T07:12:27.329Z,981.52
2022-11-16T07:13:26.987Z,981.51
2022-11-16T07:14:26.962Z,981.48
2022-11-16T07:15:27.191Z,981.50
2022-11-16T07:16:26.797Z,981.52
2022-11-16T07:17:27.747Z,981.50
2022-11-16T07:18:26.667Z,981.51
2022-11-16T07:19:26.589Z,981.49
2022-11-16T07:20:27.830Z,981.54
2022-11-16T07:21:26.506Z,981.49
2022-11-16T07:22:26.409Z,981.50
2022-11-16T07:23:26.363Z,981.58
2022-11-16T07:24:26.324Z,981.56
2022-11-16T07:25:26.218Z,981.58
2022-11-16T07:26:26.190Z,981.62
2022-11-16T07:27:26.108Z,981.62
2022-11-16T07:28:26.039Z,981.66
2022-11-16T07:29:26.036Z,981.61
2022-11-16T07:30:25.896Z,981.62
2022-11-16T07:31:25.867Z,981.65
2022-11-16T07:32:25.796Z,981.67
2022-11-16T07:33:25.763Z,981.67
2022-11-16T07:34:25.677Z,981.67
2022-11-16T07:35:25.588Z,981.66
2022-11-16T07:36:25.547Z,981.66
2022-11-16T07:37:25.444Z,981.65
2022-11-16T07:38:25.423Z,981.68
2022-11-16T07:39:25.337Z,981.65
2022-11-16T07:40:25.244Z,981.71
2022-11-16T07:41:25.227Z,981.68
2022-11-16T07:42:25.124Z,981.67
2022-11-16T07:43:25.105Z,981.66
2022-11-16T07:44:25.004Z,981.68
2022-11-16T07:45:24.979Z,981.73
2022-11-16T07:47:24.824Z,981.73
2022-11-16T07:48:24.743Z,981.72
2022-11-16T07:49:24.673Z,981.75
2022-11-16T07:50:24.593Z,981.77
2022-11-16T07:51:24.573Z,981.79
2022-11-16T07:52:24.483Z,981.78
2022-11-16T07:53:24.423Z,981.81
2022-11-16T07:54:24.364Z,981.84
2022-11-16T07:55:24.280Z,981.85
2022-11-16T07:56:24.255Z,981.80
2022-11-16T07:57:24.214Z,981.84
2022-11-16T07:58:24.136Z,981.82
2022-11-16T07:59:24.067Z,981.83
2022-11-16T08:00:23.972Z,981.85
2022-11-16T08:01:23.990Z,981.80
2022-11-16T08:02:23.841Z,981.78
2022-11-16T08:03:24.924Z,981.83
2022-11-16T08:04:23.734Z,981.81
2022-11-16T08:05:23.658Z,981.85
2022-11-16T08:06:23.580Z,981.85
2022-11-16T08:07:23.594Z,981.88
2022-11-16T08:08:23.460Z,981.81
2022-11-16T08:09:23.453Z,981.82
2022-11-16T08:10:23.408Z,981.83
2022-11-16T08:11:23.269Z,981.84
2022-11-16T08:12:23.242Z,981.83
2022-11-16T08:13:23.170Z,981.79
2022-11-16T08:14:23.101Z,981.80
2022-11-16T08:15:23.000Z,981.79
2022-11-16T08:16:22.977Z,981.80
2022-11-16T08:17:22.888Z,981.76
2022-11-16T08:18:22.808Z,981.81
2022-11-16T08:19:22.727Z,981.79
2022-11-16T08:20:22.676Z,981.79
2022-11-16T08:21:43.608Z,981.80
2022-11-16T08:22:22.566Z,981.81
2022-11-16T08:23:24.716Z,981.79
2022-11-16T08:24:22.518Z,981.79
2022-11-16T08:25:22.362Z,981.80
2022-11-16T08:26:22.565Z,981.81
2022-11-16T08:27:22.294Z,981.83
2022-11-16T08:28:22.201Z,981.82
2022-11-16T08:29:22.161Z,981.80
2022-11-16T08:30:22.058Z,981.80
2022-11-16T08:31:21.985Z,981.83
2022-11-16T08:32:21.928Z,981.86
2022-11-16T08:33:21.867Z,981.86
2022-11-16T08:34:21.781Z,981.86
2022-11-16T08:35:21.727Z,981.85
2022-11-16T08:36:21.805Z,981.88
2022-11-16T08:37:21.586Z,981.90
2022-11-16T08:38:22.478Z,981.91
2022-11-16T08:39:22.000Z,981.90
2022-11-16T08:40:21.411Z,981.93
2022-11-16T08:41:21.329Z,981.95
2022-11-16T08:42:21.695Z,981.94
2022-11-16T08:43:21.756Z,981.95
2022-11-16T08:44:21.644Z,981.94
2022-11-16T08:45:28.725Z,981.90
2022-11-16T08:46:21.015Z,981.92
2022-11-16T08:47:20.981Z,981.94
2022-11-16T08:48:20.886Z,981.92
2022-11-16T08:49:20.855Z,981.89
2022-11-16T08:50:44.220Z,981.95
2022-11-16T08:51:21.290Z,981.96
2022-11-16T08:52:20.654Z,981.93
2022-11-16T08:53:20.568Z,981.93
2022-11-16T08:54:20.505Z,981.94
2022-11-16T08:55:20.465Z,982.00
2022-11-16T08:56:20.384Z,981.99
2022-11-16T08:57:20.343Z,981.99
2022-11-16T08:58:20.272Z,981.99
2022-11-16T08:59:20.213Z,982.03
2022-11-16T09:00:20.121Z,982.03
2022-11-16T09:01:20.132Z,982.04
2022-11-16T09:02:20.052Z,982.02
2022-11-16T09:03:19.992Z,982.06
2022-11-16T09:04:19.870Z,982.08
2022-11-16T09:05:19.804Z,982.07
2022-11-16T09:06:19.773Z,982.06
2022-11-16T09:07:19.759Z,982.04
2022-11-16T09:08:19.610Z,982.06
2022-11-16T09:09:40.576Z,982.06
2022-11-16T09:10:19.523Z,982.03
2022-11-16T09:11:19.421Z,982.01
2022-11-16T09:12:40.343Z,981.96
2022-11-16T09:13:19.318Z,981.99
2022-11-16T09:14:19.233Z,981.98
2022-11-16T09:15:19.186Z,981.96
2022-11-16T09:16:19.100Z,981.96
2022-11-16T09:17:23.099Z,981.97
2022-11-16T09:18:18.972Z,981.97
2022-11-16T09:19:18.918Z,982.02
2022-11-16T09:20:18.828Z,981.99
2022-11-16T09:21:18.804Z,982.00
2022-11-16T09:22:18.707Z,982.04
2022-11-16T09:23:23.818Z,981.99
2022-11-16T09:24:18.603Z,982.07
2022-11-16T09:25:18.541Z,982.02
2022-11-16T09:26:18.442Z,982.05
2022-11-16T09:27:18.407Z,982.05
2022-11-16T09:28:18.333Z,982.09
2022-11-16T09:29:18.268Z,982.09
2022-11-16T09:30:18.220Z,982.15
2022-11-16T09:31:23.151Z,982.17
2022-11-16T09:32:18.108Z,982.15
2022-11-16T09:33:18.034Z,982.17
2022-11-16T09:34:17.937Z,982.18
2022-11-16T09:35:17.880Z,982.14
2022-11-16T09:36:17.829Z,982.15
2022-11-16T09:37:17.754Z,982.18
2022-11-16T09:38:30.419Z,982.14
2022-11-16T09:39:33.004Z,982.15
2022-11-16T09:40:17.558Z,982.09
2022-11-16T09:41:17.486Z,982.06
2022-11-16T09:42:17.436Z,982.09
2022-11-16T09:43:17.364Z,982.04
2022-11-16T09:44:17.298Z,982.05
2022-11-16T09:45:19.656Z,982.07
2022-11-16T09:46:17.165Z,982.06
2022-11-16T09:47:17.113Z,982.09
2022-11-16T09:48:17.067Z,982.13
2022-11-16T09:49:17.957Z,982.16
2022-11-16T09:50:16.892Z,982.19
2022-11-16T09:51:30.638Z,982.16
2022-11-16T09:52:16.801Z,982.16
2022-11-16T09:53:17.234Z,982.17
2022-11-16T09:54:16.655Z,982.19
2022-11-16T09:55:16.598Z,982.17
2022-11-16T09:56:21.801Z,982.18
2022-11-16T09:57:16.497Z,982.19
2022-11-16T09:58:16.391Z,982.17
2022-11-16T09:59:18.400Z,982.19
2022-11-16T10:00:16.275Z,982.17
2022-11-16T10:01:16.228Z,982.17
2022-11-16T10:02:16.148Z,982.17
2022-11-16T10:03:17.311Z,982.20
2022-11-16T10:04:16.081Z,982.14
2022-11-16T10:05:15.963Z,982.11
2022-11-16T10:06:15.904Z,982.12
2022-11-16T10:07:16.758Z,982.13
2022-11-16T10:08:15.766Z,982.14
2022-11-16T10:09:15.758Z,982.10
2022-11-16T10:10:15.624Z,982.10
2022-11-16T10:11:15.592Z,982.07
2022-11-16T10:12:15.492Z,982.08
2022-11-16T10:13:15.445Z,982.08
2022-11-16T10:14:15.380Z,982.09
2022-11-16T10:15:15.322Z,982.12
2022-11-16T10:16:15.262Z,982.12
2022-11-16T10:17:15.182Z,982.09
2022-11-16T10:18:15.145Z,982.06
2022-11-16T10:19:15.054Z,982.06
2022-11-16T10:20:15.027Z,982.10
2022-11-16T10:21:35.904Z,982.08
2022-11-16T10:22:14.901Z,982.09
2022-11-16T10:23:14.869Z,982.09
2022-11-16T10:24:14.750Z,982.11
2022-11-16T10:25:14.675Z,982.09
2022-11-16T10:26:14.647Z,982.10
2022-11-16T10:27:17.851Z,982.11
2022-11-16T10:28:14.495Z,982.11
2022-11-16T10:29:14.453Z,982.09
2022-11-16T10:30:14.341Z,982.10
2022-11-16T10:31:14.291Z,982.08
2022-11-16T10:32:14.238Z,982.03
2022-11-16T10:33:14.237Z,982.03
2022-11-16T10:34:14.142Z,982.04
2022-11-16T10:35:14.036Z,982.03
2022-11-16T10:36:14.067Z,982.07
2022-11-16T10:37:13.905Z,982.06
2022-11-16T10:38:13.944Z,982.06
2022-11-16T10:39:13.780Z,982.07
2022-11-16T10:40:13.698Z,982.09
2022-11-16T10:41:13.646Z,982.02
2022-11-16T10:42:13.575Z,982.07
2022-11-16T10:43:13.509Z,982.08
2022-11-16T10:44:13.448Z,982.04
2022-11-16T10:45:13.410Z,982.00
2022-11-16T10:46:13.392Z,982.00
2022-11-16T10:47:13.271Z,981.98
2022-11-16T10:48:13.200Z,981.94
2022-11-16T10:49:13.189Z,981.91
2022-11-16T10:50:13.066Z,981.96
2022-11-16T10:51:13.059Z,981.96
2022-11-16T10:52:12.932Z,981.96
2022-11-16T10:53:12.876Z,981.92
2022-11-16T10:54:12.795Z,981.94
2022-11-16T10:55:12.751Z,981.94
2022-11-16T10:56:12.700Z,981.94
2022-11-16T10:57:15.040Z,981.92
2022-11-16T10:58:12.555Z,981.92
2022-11-16T10:59:12.495Z,981.88
2022-11-16T11:00:12.871Z,981.91
2022-11-16T11:01:12.431Z,981.93
2022-11-16T11:02:12.292Z,981.91
2022-11-16T11:03:12.260Z,981.93
2022-11-16T11:04:12.190Z,981.92
2022-11-16T11:05:12.097Z,981.88
2022-11-16T11:06:12.078Z,981.84
2022-11-16T11:07:12.014Z,981.89
2022-11-16T11:08:11.919Z,981.88
2022-11-16T11:09:11.860Z,981.87
2022-11-16T11:10:11.815Z,981.87
2022-11-16T11:11:11.729Z,981.91
2022-11-16T11:12:11.655Z,981.90
2022-11-16T11:13:11.622Z,981.93
2022-11-16T11:14:11.576Z,981.93
2022-11-16T11:17:30.849Z,981.93
2022-11-16T11:18:31.773Z,981.94
2022-11-16T11:19:31.729Z,981.90
2022-11-16T11:20:31.634Z,981.94
2022-11-16T11:21:31.601Z,981.87
2022-11-16T11:22:31.544Z,981.88
2022-11-16T11:23:31.641Z,981.86
2022-11-16T11:24:44.363Z,981.86
2022-11-16T11:25:31.324Z,981.85
2022-11-16T11:26:36.270Z,981.88
2022-11-16T11:27:31.191Z,981.90
2022-11-16T11:28:31.141Z,981.86
2022-11-16T11:29:31.029Z,981.89
2022-11-16T11:30:30.969Z,981.89
2022-11-16T11:31:30.991Z,981.85
2022-11-16T11:32:30.861Z,981.85
2022-11-16T11:33:30.923Z,981.87
2022-11-16T11:34:51.703Z,981.85
2022-11-16T11:35:30.658Z,981.84
2022-11-16T11:36:30.632Z,981.85
2022-11-16T11:37:30.539Z,981.80
2022-11-16T11:38:51.494Z,981.77
2022-11-16T11:39:30.454Z,981.76
2022-11-16T11:40:30.345Z,981.78
2022-11-16T11:41:30.291Z,981.77
2022-11-16T11:42:30.206Z,981.81
2022-11-16T11:43:30.170Z,981.81
2022-11-16T11:44:30.086Z,981.77
2022-11-16T11:45:30.007Z,981.77
2022-11-16T11:46:56.078Z,981.76
2022-11-16T11:47:59.966Z,981.75
2022-11-16T11:48:29.799Z,981.74
2022-11-16T11:49:33.701Z,981.76
2022-11-16T11:53:44.005Z,981.71
2022-11-16T11:53:48.977Z,981.75
2022-11-16T11:54:48.904Z,981.77
2022-11-16T11:55:48.834Z,981.75
2022-11-16T11:56:48.771Z,981.75
2022-11-16T11:57:48.695Z,981.72
2022-11-16T11:58:48.644Z,981.71
2022-11-16T11:59:48.612Z,981.68
2022-11-16T12:00:48.497Z,981.64
2022-11-16T12:01:48.458Z,981.61
2022-11-16T12:02:48.462Z,981.59
2022-11-16T12:03:48.328Z,981.58
2022-11-16T12:04:48.295Z,981.60
2022-11-16T12:05:48.200Z,981.59
2022-11-16T12:06:48.175Z,981.57
2022-11-16T12:07:48.805Z,981.64
2022-11-16T12:08:48.034Z,981.65
2022-11-16T12:09:47.985Z,981.67
2022-11-16T12:10:47.926Z,981.57
2022-11-16T12:11:52.132Z,981.63
2022-11-16T12:12:47.784Z,981.65
2022-11-16T12:13:47.731Z,981.59
2022-11-16T12:14:47.599Z,981.53
2022-11-16T12:15:47.546Z,981.59
2022-11-16T12:16:47.485Z,981.55
2022-11-16T12:17:47.450Z,981.51
2022-11-16T12:18:47.352Z,981.51
2022-11-16T12:19:47.347Z,981.53
2022-11-16T12:20:47.216Z,981.49
2022-11-16T12:21:47.178Z,981.54
2022-11-16T12:22:47.169Z,981.56
2022-11-16T12:23:47.089Z,981.53
2022-11-16T12:24:46.971Z,981.52
2022-11-16T12:25:46.907Z,981.50
2022-11-16T12:26:46.852Z,981.50
2022-11-16T12:27:46.804Z,981.52
2022-11-16T12:28:50.923Z,981.49
2022-11-16T12:29:46.662Z,981.47
2022-11-16T12:30:46.591Z,981.43
2022-11-16T12:31:46.588Z,981.43
2022-11-16T12:32:46.523Z,981.42
2022-11-16T12:33:46.375Z,981.39
2022-11-16T12:34:46.340Z,981.38
2022-11-16T12:35:46.318Z,981.44
2022-11-16T12:36:46.194Z,981.42
2022-11-16T12:37:46.123Z,981.36
2022-11-16T12:38:46.073Z,981.36
2022-11-16T12:39:46.020Z,981.38
2022-11-16T12:40:45.955Z,981.35
2022-11-16T12:41:45.900Z,981.35
2022-11-16T12:42:45.816Z,981.32
2022-11-16T12:43:45.758Z,981.35
2022-11-16T12:44:45.699Z,981.44